sensor_id;sensor_type;location;lat;lon;timestamp;temperature;humidity
79024;DHT22;70306;44.764;37.688;2023-06-14T00:00:57;22.61;73.59
79024;DHT22;70306;44.764;37.688;2023-06-14T00:01:59;22.58;73.65
79024;DHT22;70306;44.764;37.688;2023-06-14T00:03:02;22.54;73.76
79024;DHT22;70306;44.764;37.688;2023-06-14T00:04:05;22.54;73.76
79024;DHT22;70306;44.764;37.688;2023-06-14T00:05:10;22.54;73.69
79024;DHT22;70306;44.764;37.688;2023-06-14T00:06:13;22.52;73.68
79024;DHT22;70306;44.764;37.688;2023-06-14T00:07:16;22.55;73.60
79024;DHT22;70306;44.764;37.688;2023-06-14T00:08:18;22.52;73.71
79024;DHT22;70306;44.764;37.688;2023-06-14T00:09:20;22.52;73.72
79024;DHT22;70306;44.764;37.688;2023-06-14T00:10:22;22.51;73.70
79024;DHT22;70306;44.764;37.688;2023-06-14T00:11:24;22.52;73.62
79024;DHT22;70306;44.764;37.688;2023-06-14T00:12:28;22.54;73.48
79024;DHT22;70306;44.764;37.688;2023-06-14T00:13:30;22.52;73.60
79024;DHT22;70306;44.764;37.688;2023-06-14T00:14:32;22.54;73.53
79024;DHT22;70306;44.764;37.688;2023-06-14T00:15:34;22.51;73.52
79024;DHT22;70306;44.764;37.688;2023-06-14T00:16:36;22.51;73.52
79024;DHT22;70306;44.764;37.688;2023-06-14T00:17:40;22.49;73.52
79024;DHT22;70306;44.764;37.688;2023-06-14T00:18:41;22.43;73.77
79024;DHT22;70306;44.764;37.688;2023-06-14T00:19:43;22.43;73.79
79024;DHT22;70306;44.764;37.688;2023-06-14T00:20:45;22.43;73.89
79024;DHT22;70306;44.764;37.688;2023-06-14T00:21:48;22.40;73.85
79024;DHT22;70306;44.764;37.688;2023-06-14T00:22:50;22.39;73.89
79024;DHT22;70306;44.764;37.688;2023-06-14T00:23:52;22.33;73.95
79024;DHT22;70306;44.764;37.688;2023-06-14T00:24:54;22.31;73.91
79024;DHT22;70306;44.764;37.688;2023-06-14T00:25:56;22.34;73.96
79024;DHT22;70306;44.764;37.688;2023-06-14T00:26:58;22.33;73.93
79024;DHT22;70306;44.764;37.688;2023-06-14T00:28:00;22.33;73.91
79024;DHT22;70306;44.764;37.688;2023-06-14T00:29:02;22.34;73.87
79024;DHT22;70306;44.764;37.688;2023-06-14T00:30:06;22.31;73.77
79024;DHT22;70306;44.764;37.688;2023-06-14T00:31:08;22.29;73.76
79024;DHT22;70306;44.764;37.688;2023-06-14T00:32:10;22.29;73.72
79024;DHT22;70306;44.764;37.688;2023-06-14T00:33:12;22.27;73.79
79024;DHT22;70306;44.764;37.688;2023-06-14T00:34:15;22.21;73.77
79024;DHT22;70306;44.764;37.688;2023-06-14T00:35:17;22.21;73.88
79024;DHT22;70306;44.764;37.688;2023-06-14T00:36:19;22.18;73.98
79024;DHT22;70306;44.764;37.688;2023-06-14T00:37:21;22.17;73.95
79024;DHT22;70306;44.764;37.688;2023-06-14T00:38:23;22.14;73.93
79024;DHT22;70306;44.764;37.688;2023-06-14T00:39:25;22.14;73.97
79024;DHT22;70306;44.764;37.688;2023-06-14T00:40:27;22.12;73.90
79024;DHT22;70306;44.764;37.688;2023-06-14T00:41:29;22.10;73.89
79024;DHT22;70306;44.764;37.688;2023-06-14T00:42:31;22.10;73.94
79024;DHT22;70306;44.764;37.688;2023-06-14T00:43:33;22.09;73.99
79024;DHT22;70306;44.764;37.688;2023-06-14T00:44:36;22.06;74.01
79024;DHT22;70306;44.764;37.688;2023-06-14T00:45:38;22.05;74.00
79024;DHT22;70306;44.764;37.688;2023-06-14T00:46:40;22.05;73.96
79024;DHT22;70306;44.764;37.688;2023-06-14T00:47:43;22.03;73.98
79024;DHT22;70306;44.764;37.688;2023-06-14T00:48:45;22.02;74.02
79024;DHT22;70306;44.764;37.688;2023-06-14T00:49:48;21.99;74.22
79024;DHT22;70306;44.764;37.688;2023-06-14T00:50:51;21.96;74.26
79024;DHT22;70306;44.764;37.688;2023-06-14T00:51:54;21.95;74.32
79024;DHT22;70306;44.764;37.688;2023-06-14T00:52:56;21.93;74.27
79024;DHT22;70306;44.764;37.688;2023-06-14T00:53:59;21.89;74.33
79024;DHT22;70306;44.764;37.688;2023-06-14T00:55:02;21.90;74.35
79024;DHT22;70306;44.764;37.688;2023-06-14T00:56:05;21.92;74.26
79024;DHT22;70306;44.764;37.688;2023-06-14T00:57:08;21.93;74.27
79024;DHT22;70306;44.764;37.688;2023-06-14T00:58:12;21.89;74.25
79024;DHT22;70306;44.764;37.688;2023-06-14T00:59:17;21.90;74.23
79024;DHT22;70306;44.764;37.688;2023-06-14T01:00:19;21.92;74.10
79024;DHT22;70306;44.764;37.688;2023-06-14T01:01:22;21.92;74.09
79024;DHT22;70306;44.764;37.688;2023-06-14T01:02:25;21.92;74.18
79024;DHT22;70306;44.764;37.688;2023-06-14T01:03:27;21.89;74.22
79024;DHT22;70306;44.764;37.688;2023-06-14T01:04:30;21.92;74.22
79024;DHT22;70306;44.764;37.688;2023-06-14T01:05:32;21.88;74.33
79024;DHT22;70306;44.764;37.688;2023-06-14T01:09:35;21.79;74.60
79024;DHT22;70306;44.764;37.688;2023-06-14T01:11:07;21.72;74.66
79024;DHT22;70306;44.764;37.688;2023-06-14T01:12:20;21.69;74.74
79024;DHT22;70306;44.764;37.688;2023-06-14T01:13:29;21.66;74.92
79024;DHT22;70306;44.764;37.688;2023-06-14T01:14:34;21.65;74.96
79024;DHT22;70306;44.764;37.688;2023-06-14T01:15:37;21.66;74.88
79024;DHT22;70306;44.764;37.688;2023-06-14T01:16:40;21.66;74.80
79024;DHT22;70306;44.764;37.688;2023-06-14T01:17:44;21.71;74.87
79024;DHT22;70306;44.764;37.688;2023-06-14T01:18:47;21.75;74.73
79024;DHT22;70306;44.764;37.688;2023-06-14T01:19:51;21.75;74.67
79024;DHT22;70306;44.764;37.688;2023-06-14T01:20:59;21.79;74.72
79024;DHT22;70306;44.764;37.688;2023-06-14T01:22:01;21.81;74.73
79024;DHT22;70306;44.764;37.688;2023-06-14T01:23:04;21.82;74.76
79024;DHT22;70306;44.764;37.688;2023-06-14T01:24:06;21.81;74.74
79024;DHT22;70306;44.764;37.688;2023-06-14T01:25:08;21.83;74.76
79024;DHT22;70306;44.764;37.688;2023-06-14T01:26:10;21.81;74.80
79024;DHT22;70306;44.764;37.688;2023-06-14T01:27:17;21.83;74.87
79024;DHT22;70306;44.764;37.688;2023-06-14T01:28:21;21.82;74.96
79024;DHT22;70306;44.764;37.688;2023-06-14T01:29:24;21.85;74.96
79024;DHT22;70306;44.764;37.688;2023-06-14T01:30:29;21.83;74.89
79024;DHT22;70306;44.764;37.688;2023-06-14T01:31:32;21.82;74.91
79024;DHT22;70306;44.764;37.688;2023-06-14T01:32:43;21.83;75.05
79024;DHT22;70306;44.764;37.688;2023-06-14T01:33:47;21.86;75.16
79024;DHT22;70306;44.764;37.688;2023-06-14T01:34:50;21.88;75.52
79024;DHT22;70306;44.764;37.688;2023-06-14T01:35:53;21.85;75.64
79024;DHT22;70306;44.764;37.688;2023-06-14T01:36:57;21.85;75.67
79024;DHT22;70306;44.764;37.688;2023-06-14T01:38:02;21.88;75.63
79024;DHT22;70306;44.764;37.688;2023-06-14T01:39:05;21.90;75.67
79024;DHT22;70306;44.764;37.688;2023-06-14T01:40:10;21.90;75.67
79024;DHT22;70306;44.764;37.688;2023-06-14T01:41:14;21.89;75.64
79024;DHT22;70306;44.764;37.688;2023-06-14T01:42:17;21.93;75.68
79024;DHT22;70306;44.764;37.688;2023-06-14T01:43:19;21.96;75.73
79024;DHT22;70306;44.764;37.688;2023-06-14T01:44:23;21.95;75.79
79024;DHT22;70306;44.764;37.688;2023-06-14T01:45:26;21.93;75.70
79024;DHT22;70306;44.764;37.688;2023-06-14T01:46:28;21.92;75.74
79024;DHT22;70306;44.764;37.688;2023-06-14T01:47:31;21.93;75.75
79024;DHT22;70306;44.764;37.688;2023-06-14T01:48:34;21.93;75.81
79024;DHT22;70306;44.764;37.688;2023-06-14T01:49:38;21.90;75.83
79024;DHT22;70306;44.764;37.688;2023-06-14T01:50:40;21.95;75.82
79024;DHT22;70306;44.764;37.688;2023-06-14T01:51:42;21.97;75.80
79024;DHT22;70306;44.764;37.688;2023-06-14T01:52:44;21.92;75.79
79024;DHT22;70306;44.764;37.688;2023-06-14T01:53:46;21.99;75.81
79024;DHT22;70306;44.764;37.688;2023-06-14T01:54:48;21.96;75.71
79024;DHT22;70306;44.764;37.688;2023-06-14T01:55:51;22.05;75.68
79024;DHT22;70306;44.764;37.688;2023-06-14T01:56:55;22.05;75.57
79024;DHT22;70306;44.764;37.688;2023-06-14T01:57:57;22.03;75.58
79024;DHT22;70306;44.764;37.688;2023-06-14T01:59:01;22.06;75.49
79024;DHT22;70306;44.764;37.688;2023-06-14T02:00:04;22.07;75.60
79024;DHT22;70306;44.764;37.688;2023-06-14T02:01:14;22.09;75.51
79024;DHT22;70306;44.764;37.688;2023-06-14T02:02:20;22.10;75.63
79024;DHT22;70306;44.764;37.688;2023-06-14T02:03:22;22.10;75.46
79024;DHT22;70306;44.764;37.688;2023-06-14T02:04:24;22.12;75.41
79024;DHT22;70306;44.764;37.688;2023-06-14T02:05:27;22.14;75.39
79024;DHT22;70306;44.764;37.688;2023-06-14T02:06:29;22.17;75.32
79024;DHT22;70306;44.764;37.688;2023-06-14T02:07:31;22.17;75.24
79024;DHT22;70306;44.764;37.688;2023-06-14T02:08:33;22.16;75.21
79024;DHT22;70306;44.764;37.688;2023-06-14T02:09:36;22.18;75.21
79024;DHT22;70306;44.764;37.688;2023-06-14T02:10:38;22.18;75.12
79024;DHT22;70306;44.764;37.688;2023-06-14T02:11:40;22.21;75.08
79024;DHT22;70306;44.764;37.688;2023-06-14T02:12:41;22.23;75.00
79024;DHT22;70306;44.764;37.688;2023-06-14T02:13:44;22.23;74.85
79024;DHT22;70306;44.764;37.688;2023-06-14T02:14:47;22.18;75.12
79024;DHT22;70306;44.764;37.688;2023-06-14T02:15:50;22.17;75.03
79024;DHT22;70306;44.764;37.688;2023-06-14T02:16:54;22.18;75.24
79024;DHT22;70306;44.764;37.688;2023-06-14T02:17:56;22.17;75.25
79024;DHT22;70306;44.764;37.688;2023-06-14T02:18:59;22.18;75.05
79024;DHT22;70306;44.764;37.688;2023-06-14T02:20:01;22.20;75.11
79024;DHT22;70306;44.764;37.688;2023-06-14T02:21:06;22.14;75.20
79024;DHT22;70306;44.764;37.688;2023-06-14T02:22:08;22.18;75.01
79024;DHT22;70306;44.764;37.688;2023-06-14T02:23:10;22.18;74.83
79024;DHT22;70306;44.764;37.688;2023-06-14T02:24:12;22.18;74.74
79024;DHT22;70306;44.764;37.688;2023-06-14T02:25:14;22.17;74.64
79024;DHT22;70306;44.764;37.688;2023-06-14T02:26:16;22.18;74.43
79024;DHT22;70306;44.764;37.688;2023-06-14T02:27:18;22.16;74.40
79024;DHT22;70306;44.764;37.688;2023-06-14T02:28:20;22.14;74.33
79024;DHT22;70306;44.764;37.688;2023-06-14T02:29:22;22.12;74.41
79024;DHT22;70306;44.764;37.688;2023-06-14T02:30:24;22.13;74.44
79024;DHT22;70306;44.764;37.688;2023-06-14T02:31:26;22.09;74.53
79024;DHT22;70306;44.764;37.688;2023-06-14T02:32:28;22.09;74.63
79024;DHT22;70306;44.764;37.688;2023-06-14T02:33:30;22.07;74.81
79024;DHT22;70306;44.764;37.688;2023-06-14T02:34:33;22.07;74.68
79024;DHT22;70306;44.764;37.688;2023-06-14T02:35:35;22.06;74.85
79024;DHT22;70306;44.764;37.688;2023-06-14T02:36:39;22.02;74.87
79024;DHT22;70306;44.764;37.688;2023-06-14T02:37:43;22.00;74.85
79024;DHT22;70306;44.764;37.688;2023-06-14T02:38:45;22.00;74.79
79024;DHT22;70306;44.764;37.688;2023-06-14T02:39:48;21.97;74.90
79024;DHT22;70306;44.764;37.688;2023-06-14T02:40:50;21.96;75.07
79024;DHT22;70306;44.764;37.688;2023-06-14T02:41:52;21.93;75.17
79024;DHT22;70306;44.764;37.688;2023-06-14T02:42:55;21.93;75.20
79024;DHT22;70306;44.764;37.688;2023-06-14T02:43:57;21.90;75.26
79024;DHT22;70306;44.764;37.688;2023-06-14T02:45:00;21.90;75.13
79024;DHT22;70306;44.764;37.688;2023-06-14T02:46:05;21.92;75.11
79024;DHT22;70306;44.764;37.688;2023-06-14T02:47:07;21.90;75.09
79024;DHT22;70306;44.764;37.688;2023-06-14T02:48:09;21.89;75.11
79024;DHT22;70306;44.764;37.688;2023-06-14T02:49:31;21.90;75.16
79024;DHT22;70306;44.764;37.688;2023-06-14T02:50:33;21.88;75.12
79024;DHT22;70306;44.764;37.688;2023-06-14T02:51:35;21.88;75.27
79024;DHT22;70306;44.764;37.688;2023-06-14T02:52:37;21.86;75.40
79024;DHT22;70306;44.764;37.688;2023-06-14T02:53:39;21.85;75.46
79024;DHT22;70306;44.764;37.688;2023-06-14T02:54:42;21.86;75.41
79024;DHT22;70306;44.764;37.688;2023-06-14T02:55:45;21.86;75.43
79024;DHT22;70306;44.764;37.688;2023-06-14T02:56:48;21.92;75.45
79024;DHT22;70306;44.764;37.688;2023-06-14T02:57:50;21.93;75.39
79024;DHT22;70306;44.764;37.688;2023-06-14T02:58:52;21.95;75.43
79024;DHT22;70306;44.764;37.688;2023-06-14T02:59:55;21.96;75.46
79024;DHT22;70306;44.764;37.688;2023-06-14T03:00:57;21.99;75.54
79024;DHT22;70306;44.764;37.688;2023-06-14T03:01:59;22.03;75.59
79024;DHT22;70306;44.764;37.688;2023-06-14T03:03:01;22.07;75.90
79024;DHT22;70306;44.764;37.688;2023-06-14T03:04:03;22.13;76.17
79024;DHT22;70306;44.764;37.688;2023-06-14T03:05:08;22.18;76.05
79024;DHT22;70306;44.764;37.688;2023-06-14T03:06:12;22.23;76.08
79024;DHT22;70306;44.764;37.688;2023-06-14T03:07:17;22.30;76.16
79024;DHT22;70306;44.764;37.688;2023-06-14T03:08:23;22.37;76.22
79024;DHT22;70306;44.764;37.688;2023-06-14T03:09:31;22.40;76.16
79024;DHT22;70306;44.764;37.688;2023-06-14T03:10:33;22.45;76.14
79024;DHT22;70306;44.764;37.688;2023-06-14T03:11:35;22.51;76.15
79024;DHT22;70306;44.764;37.688;2023-06-14T03:12:37;22.55;75.97
79024;DHT22;70306;44.764;37.688;2023-06-14T03:13:40;22.62;75.95
79024;DHT22;70306;44.764;37.688;2023-06-14T03:14:43;22.64;75.82
79024;DHT22;70306;44.764;37.688;2023-06-14T03:15:49;22.68;75.55
79024;DHT22;70306;44.764;37.688;2023-06-14T03:16:56;22.75;75.31
79024;DHT22;70306;44.764;37.688;2023-06-14T03:17:59;22.79;75.30
79024;DHT22;70306;44.764;37.688;2023-06-14T03:19:01;22.79;75.03
79024;DHT22;70306;44.764;37.688;2023-06-14T03:20:07;22.83;75.38
79024;DHT22;70306;44.764;37.688;2023-06-14T03:21:09;22.83;75.53
79024;DHT22;70306;44.764;37.688;2023-06-14T03:22:15;22.73;75.56
79024;DHT22;70306;44.764;37.688;2023-06-14T03:23:19;22.71;75.84
79024;DHT22;70306;44.764;37.688;2023-06-14T03:24:21;22.71;75.96
79024;DHT22;70306;44.764;37.688;2023-06-14T03:25:23;22.69;76.14
79024;DHT22;70306;44.764;37.688;2023-06-14T03:26:27;22.68;76.29
79024;DHT22;70306;44.764;37.688;2023-06-14T03:27:31;22.68;76.23
79024;DHT22;70306;44.764;37.688;2023-06-14T03:28:33;22.71;75.62
79024;DHT22;70306;44.764;37.688;2023-06-14T03:29:35;22.71;75.93
79024;DHT22;70306;44.764;37.688;2023-06-14T03:30:37;22.75;75.70
79024;DHT22;70306;44.764;37.688;2023-06-14T03:31:59;22.88;75.30
79024;DHT22;70306;44.764;37.688;2023-06-14T03:33:08;22.85;75.37
79024;DHT22;70306;44.764;37.688;2023-06-14T03:34:13;22.83;75.48
79024;DHT22;70306;44.764;37.688;2023-06-14T03:35:17;22.81;75.82
79024;DHT22;70306;44.764;37.688;2023-06-14T03:36:20;22.76;75.85
79024;DHT22;70306;44.764;37.688;2023-06-14T03:37:22;22.76;75.66
79024;DHT22;70306;44.764;37.688;2023-06-14T03:38:24;22.68;75.82
79024;DHT22;70306;44.764;37.688;2023-06-14T03:39:26;22.66;76.06
79024;DHT22;70306;44.764;37.688;2023-06-14T03:40:30;22.66;75.80
79024;DHT22;70306;44.764;37.688;2023-06-14T03:41:37;22.66;75.74
79024;DHT22;70306;44.764;37.688;2023-06-14T03:42:39;22.71;75.75
79024;DHT22;70306;44.764;37.688;2023-06-14T03:43:42;22.75;75.84
79024;DHT22;70306;44.764;37.688;2023-06-14T03:44:44;22.76;75.50
79024;DHT22;70306;44.764;37.688;2023-06-14T03:45:46;22.76;75.52
79024;DHT22;70306;44.764;37.688;2023-06-14T03:46:48;22.76;75.59
79024;DHT22;70306;44.764;37.688;2023-06-14T03:47:51;22.75;75.57
79024;DHT22;70306;44.764;37.688;2023-06-14T03:48:54;22.77;75.51
79024;DHT22;70306;44.764;37.688;2023-06-14T03:49:57;22.76;75.36
79024;DHT22;70306;44.764;37.688;2023-06-14T03:50:59;22.82;75.16
79024;DHT22;70306;44.764;37.688;2023-06-14T03:52:02;22.86;75.16
79024;DHT22;70306;44.764;37.688;2023-06-14T03:53:06;22.89;75.20
79024;DHT22;70306;44.764;37.688;2023-06-14T03:54:08;22.91;74.84
79024;DHT22;70306;44.764;37.688;2023-06-14T03:55:11;22.92;74.97
79024;DHT22;70306;44.764;37.688;2023-06-14T03:56:16;22.98;74.82
79024;DHT22;70306;44.764;37.688;2023-06-14T03:57:19;22.93;74.56
79024;DHT22;70306;44.764;37.688;2023-06-14T03:58:24;22.86;74.89
79024;DHT22;70306;44.764;37.688;2023-06-14T03:59:26;22.88;75.10
79024;DHT22;70306;44.764;37.688;2023-06-14T04:00:28;22.89;75.04
79024;DHT22;70306;44.764;37.688;2023-06-14T04:01:30;22.92;74.91
79024;DHT22;70306;44.764;37.688;2023-06-14T04:02:35;22.95;75.04
79024;DHT22;70306;44.764;37.688;2023-06-14T04:03:38;23.02;75.11
79024;DHT22;70306;44.764;37.688;2023-06-14T04:04:42;23.07;74.84
79024;DHT22;70306;44.764;37.688;2023-06-14T04:05:47;23.14;74.65
79024;DHT22;70306;44.764;37.688;2023-06-14T04:06:52;23.20;74.40
79024;DHT22;70306;44.764;37.688;2023-06-14T04:07:54;23.26;74.12
79024;DHT22;70306;44.764;37.688;2023-06-14T04:08:58;23.30;74.29
79024;DHT22;70306;44.764;37.688;2023-06-14T04:10:03;23.34;74.11
79024;DHT22;70306;44.764;37.688;2023-06-14T04:11:05;23.43;74.06
79024;DHT22;70306;44.764;37.688;2023-06-14T04:12:09;23.48;73.88
79024;DHT22;70306;44.764;37.688;2023-06-14T04:13:13;23.52;73.61
79024;DHT22;70306;44.764;37.688;2023-06-14T04:14:17;23.59;73.69
79024;DHT22;70306;44.764;37.688;2023-06-14T04:15:19;23.65;73.75
79024;DHT22;70306;44.764;37.688;2023-06-14T04:16:22;23.69;73.51
79024;DHT22;70306;44.764;37.688;2023-06-14T04:17:24;23.71;73.35
79024;DHT22;70306;44.764;37.688;2023-06-14T04:18:26;23.76;73.43
79024;DHT22;70306;44.764;37.688;2023-06-14T04:19:28;23.78;73.30
79024;DHT22;70306;44.764;37.688;2023-06-14T04:20:30;23.88;73.26
79024;DHT22;70306;44.764;37.688;2023-06-14T04:21:33;23.92;73.41
79024;DHT22;70306;44.764;37.688;2023-06-14T04:22:38;23.96;73.70
79024;DHT22;70306;44.764;37.688;2023-06-14T04:23:42;23.97;73.64
79024;DHT22;70306;44.764;37.688;2023-06-14T04:24:46;24.00;73.70
79024;DHT22;70306;44.764;37.688;2023-06-14T04:25:48;24.02;73.71
79024;DHT22;70306;44.764;37.688;2023-06-14T04:26:51;24.06;73.63
79024;DHT22;70306;44.764;37.688;2023-06-14T04:27:56;24.03;73.62
79024;DHT22;70306;44.764;37.688;2023-06-14T04:28:59;24.02;73.54
79024;DHT22;70306;44.764;37.688;2023-06-14T04:30:07;24.06;73.32
79024;DHT22;70306;44.764;37.688;2023-06-14T04:31:13;24.13;73.50
79024;DHT22;70306;44.764;37.688;2023-06-14T04:32:15;24.16;73.01
79024;DHT22;70306;44.764;37.688;2023-06-14T04:33:17;24.18;73.11
79024;DHT22;70306;44.764;37.688;2023-06-14T04:34:20;24.23;72.62
79024;DHT22;70306;44.764;37.688;2023-06-14T04:35:28;24.31;72.41
79024;DHT22;70306;44.764;37.688;2023-06-14T04:36:35;24.35;72.48
79024;DHT22;70306;44.764;37.688;2023-06-14T04:37:40;24.40;72.25
79024;DHT22;70306;44.764;37.688;2023-06-14T04:38:44;24.45;72.70
79024;DHT22;70306;44.764;37.688;2023-06-14T04:39:51;24.52;72.72
79024;DHT22;70306;44.764;37.688;2023-06-14T04:40:54;24.49;72.47
79024;DHT22;70306;44.764;37.688;2023-06-14T04:41:59;24.44;72.28
79024;DHT22;70306;44.764;37.688;2023-06-14T04:43:03;24.49;72.84
79024;DHT22;70306;44.764;37.688;2023-06-14T04:44:08;24.51;72.59
79024;DHT22;70306;44.764;37.688;2023-06-14T04:45:16;24.55;72.55
79024;DHT22;70306;44.764;37.688;2023-06-14T04:46:19;24.61;72.27
79024;DHT22;70306;44.764;37.688;2023-06-14T04:47:23;24.61;72.07
79024;DHT22;70306;44.764;37.688;2023-06-14T04:48:32;24.62;72.05
79024;DHT22;70306;44.764;37.688;2023-06-14T04:49:34;24.69;71.98
79024;DHT22;70306;44.764;37.688;2023-06-14T04:50:36;24.73;71.92
79024;DHT22;70306;44.764;37.688;2023-06-14T04:51:39;24.82;72.01
79024;DHT22;70306;44.764;37.688;2023-06-14T04:52:42;24.86;71.73
79024;DHT22;70306;44.764;37.688;2023-06-14T04:53:45;24.89;71.75
79024;DHT22;70306;44.764;37.688;2023-06-14T04:54:48;24.94;71.67
79024;DHT22;70306;44.764;37.688;2023-06-14T04:55:55;25.04;70.96
79024;DHT22;70306;44.764;37.688;2023-06-14T04:56:58;25.16;70.57
79024;DHT22;70306;44.764;37.688;2023-06-14T04:58:02;25.21;70.16
79024;DHT22;70306;44.764;37.688;2023-06-14T04:59:06;25.21;70.62
79024;DHT22;70306;44.764;37.688;2023-06-14T05:00:10;25.21;70.50
79024;DHT22;70306;44.764;37.688;2023-06-14T05:01:14;25.31;70.67
79024;DHT22;70306;44.764;37.688;2023-06-14T05:02:36;25.42;70.26
79024;DHT22;70306;44.764;37.688;2023-06-14T05:03:45;25.41;70.28
79024;DHT22;70306;44.764;37.688;2023-06-14T05:04:50;25.45;70.32
79024;DHT22;70306;44.764;37.688;2023-06-14T05:05:52;25.49;70.11
79024;DHT22;70306;44.764;37.688;2023-06-14T05:06:55;25.54;69.44
79024;DHT22;70306;44.764;37.688;2023-06-14T05:07:57;25.58;69.45
79024;DHT22;70306;44.764;37.688;2023-06-14T05:08:59;25.61;69.54
79024;DHT22;70306;44.764;37.688;2023-06-14T05:10:07;25.59;68.78
79024;DHT22;70306;44.764;37.688;2023-06-14T05:11:09;25.62;68.72
79024;DHT22;70306;44.764;37.688;2023-06-14T05:12:11;25.66;67.41
79024;DHT22;70306;44.764;37.688;2023-06-14T05:13:13;25.71;67.80
79024;DHT22;70306;44.764;37.688;2023-06-14T05:14:15;25.71;67.57
79024;DHT22;70306;44.764;37.688;2023-06-14T05:15:17;25.71;67.70
79024;DHT22;70306;44.764;37.688;2023-06-14T05:16:39;25.68;67.76
79024;DHT22;70306;44.764;37.688;2023-06-14T05:18:05;25.73;67.83
79024;DHT22;70306;44.764;37.688;2023-06-14T05:19:10;25.78;68.05
79024;DHT22;70306;44.764;37.688;2023-06-14T05:20:13;25.79;68.53
79024;DHT22;70306;44.764;37.688;2023-06-14T05:21:20;25.79;68.04
79024;DHT22;70306;44.764;37.688;2023-06-14T05:22:22;25.83;68.21
79024;DHT22;70306;44.764;37.688;2023-06-14T05:23:24;25.90;68.22
79024;DHT22;70306;44.764;37.688;2023-06-14T05:24:27;25.90;68.15
79024;DHT22;70306;44.764;37.688;2023-06-14T05:25:31;25.90;67.50
79024;DHT22;70306;44.764;37.688;2023-06-14T05:26:33;25.86;67.84
79024;DHT22;70306;44.764;37.688;2023-06-14T05:27:35;25.89;67.15
79024;DHT22;70306;44.764;37.688;2023-06-14T05:28:38;25.86;67.82
79024;DHT22;70306;44.764;37.688;2023-06-14T05:29:40;25.85;68.06
79024;DHT22;70306;44.764;37.688;2023-06-14T05:30:42;25.82;67.74
79024;DHT22;70306;44.764;37.688;2023-06-14T05:33:05;25.76;67.80
79024;DHT22;70306;44.764;37.688;2023-06-14T05:34:07;25.78;67.83
79024;DHT22;70306;44.764;37.688;2023-06-14T05:35:09;25.80;67.82
79024;DHT22;70306;44.764;37.688;2023-06-14T05:36:11;25.79;67.81
79024;DHT22;70306;44.764;37.688;2023-06-14T05:37:13;25.75;67.59
79024;DHT22;70306;44.764;37.688;2023-06-14T05:39:41;25.66;67.77
79024;DHT22;70306;44.764;37.688;2023-06-14T05:40:43;25.69;67.92
79024;DHT22;70306;44.764;37.688;2023-06-14T05:42:22;25.69;67.67
79024;DHT22;70306;44.764;37.688;2023-06-14T05:43:23;25.75;67.79
79024;DHT22;70306;44.764;37.688;2023-06-14T05:44:26;25.86;67.70
79024;DHT22;70306;44.764;37.688;2023-06-14T05:45:28;25.94;67.28
79024;DHT22;70306;44.764;37.688;2023-06-14T05:46:48;25.88;66.62
79024;DHT22;70306;44.764;37.688;2023-06-14T05:47:51;25.86;66.69
79024;DHT22;70306;44.764;37.688;2023-06-14T05:48:54;25.89;67.12
79024;DHT22;70306;44.764;37.688;2023-06-14T05:49:56;25.89;66.92
79024;DHT22;70306;44.764;37.688;2023-06-14T05:50:59;25.83;66.66
79024;DHT22;70306;44.764;37.688;2023-06-14T05:52:01;25.78;66.55
79024;DHT22;70306;44.764;37.688;2023-06-14T05:53:03;25.85;66.99
79024;DHT22;70306;44.764;37.688;2023-06-14T05:54:05;25.86;67.11
79024;DHT22;70306;44.764;37.688;2023-06-14T05:55:12;25.83;67.33
79024;DHT22;70306;44.764;37.688;2023-06-14T05:56:15;25.80;66.94
79024;DHT22;70306;44.764;37.688;2023-06-14T05:57:19;25.78;67.07
79024;DHT22;70306;44.764;37.688;2023-06-14T05:58:21;25.79;67.37
79024;DHT22;70306;44.764;37.688;2023-06-14T05:59:23;25.79;66.85
79024;DHT22;70306;44.764;37.688;2023-06-14T06:00:25;25.73;66.71
79024;DHT22;70306;44.764;37.688;2023-06-14T06:01:27;25.69;66.95
79024;DHT22;70306;44.764;37.688;2023-06-14T06:02:29;25.69;67.33
79024;DHT22;70306;44.764;37.688;2023-06-14T06:03:31;25.68;67.27
79024;DHT22;70306;44.764;37.688;2023-06-14T06:04:33;25.66;67.63
79024;DHT22;70306;44.764;37.688;2023-06-14T06:05:36;25.76;67.10
79024;DHT22;70306;44.764;37.688;2023-06-14T06:06:38;25.82;67.17
79024;DHT22;70306;44.764;37.688;2023-06-14T06:07:41;25.93;67.05
79024;DHT22;70306;44.764;37.688;2023-06-14T06:08:45;26.03;66.38
79024;DHT22;70306;44.764;37.688;2023-06-14T06:09:48;26.07;66.77
79024;DHT22;70306;44.764;37.688;2023-06-14T06:10:50;26.21;66.62
79024;DHT22;70306;44.764;37.688;2023-06-14T06:11:53;26.35;66.37
79024;DHT22;70306;44.764;37.688;2023-06-14T06:12:55;26.42;66.35
79024;DHT22;70306;44.764;37.688;2023-06-14T06:13:57;26.48;65.55
79024;DHT22;70306;44.764;37.688;2023-06-14T06:14:59;26.51;65.02
79024;DHT22;70306;44.764;37.688;2023-06-14T06:16:02;26.58;65.94
79024;DHT22;70306;44.764;37.688;2023-06-14T06:17:04;26.71;65.69
79024;DHT22;70306;44.764;37.688;2023-06-14T06:18:06;26.73;65.40
79024;DHT22;70306;44.764;37.688;2023-06-14T06:19:08;26.83;65.24
79024;DHT22;70306;44.764;37.688;2023-06-14T06:20:11;26.87;65.30
79024;DHT22;70306;44.764;37.688;2023-06-14T06:21:13;26.92;64.29
79024;DHT22;70306;44.764;37.688;2023-06-14T06:22:15;26.96;63.45
79024;DHT22;70306;44.764;37.688;2023-06-14T06:23:35;26.94;63.84
79024;DHT22;70306;44.764;37.688;2023-06-14T06:24:38;27.00;63.93
79024;DHT22;70306;44.764;37.688;2023-06-14T06:25:40;27.00;63.10
79024;DHT22;70306;44.764;37.688;2023-06-14T06:26:42;27.03;63.71
79024;DHT22;70306;44.764;37.688;2023-06-14T06:27:45;27.04;63.32
79024;DHT22;70306;44.764;37.688;2023-06-14T06:28:47;27.00;63.22
79024;DHT22;70306;44.764;37.688;2023-06-14T06:29:53;27.00;62.92
79024;DHT22;70306;44.764;37.688;2023-06-14T06:30:55;27.03;63.60
79024;DHT22;70306;44.764;37.688;2023-06-14T06:31:58;27.06;64.01
79024;DHT22;70306;44.764;37.688;2023-06-14T06:32:59;27.10;62.95
79024;DHT22;70306;44.764;37.688;2023-06-14T06:34:07;27.11;63.16
79024;DHT22;70306;44.764;37.688;2023-06-14T06:35:09;27.07;63.74
79024;DHT22;70306;44.764;37.688;2023-06-14T06:36:12;27.04;63.55
79024;DHT22;70306;44.764;37.688;2023-06-14T06:37:14;27.07;63.59
79024;DHT22;70306;44.764;37.688;2023-06-14T06:38:35;27.08;63.38
79024;DHT22;70306;44.764;37.688;2023-06-14T06:39:37;27.11;62.82
79024;DHT22;70306;44.764;37.688;2023-06-14T06:40:39;27.13;62.73
79024;DHT22;70306;44.764;37.688;2023-06-14T06:41:41;27.14;62.81